This is the latest recevied weather packets stored in our database for station/object DG6HD-13. If no packets are shown the sender has not sent any weather packets the latest 10 day(s).
| Time | Temp. | Humidity | Pressure | Rain* | Wind** | Luminosity | Snow |
|---|---|---|---|---|---|---|---|
| 1778215626 | 7.78° C | 44% | 1021.5 hPa | - | - | - | - |
| 1778214725 | 10.56° C | 39% | 1021.4 hPa | - | - | - | - |
| 1778213824 | 8.33° C | 42% | 1021.4 hPa | - | - | - | - |
| 1778212923 | 8.89° C | 43% | 1021.2 hPa | - | - | - | - |
| 1778212023 | 10° C | 40% | 1021.1 hPa | - | - | - | - |
| 1778211122 | 7.78° C | 44% | 1021 hPa | - | - | - | - |
| 1778210221 | 11.67° C | 37% | 1020.9 hPa | - | - | - | - |
| 1778209320 | 7.78° C | 44% | 1020.9 hPa | - | - | - | - |
| 1778208419 | 10.56° C | 38% | 1020.9 hPa | - | - | - | - |
| 1778207518 | 7.78° C | 43% | 1020.8 hPa | - | - | - | - |
| 1778206617 | 9.44° C | 41% | 1020.8 hPa | - | - | - | - |
| 1778205717 | 8.33° C | 43% | 1020.9 hPa | - | - | - | - |
| 1778204816 | 7.22° C | 45% | 1020.8 hPa | - | - | - | - |
| 1778203915 | 8.33° C | 43% | 1020.7 hPa | - | - | - | - |
| 1778203014 | 7.22° C | 46% | 1020.7 hPa | - | - | - | - |
| 1778202113 | 8.33° C | 43% | 1020.6 hPa | - | - | - | - |
| 1778201213 | 7.22° C | 46% | 1020.6 hPa | - | - | - | - |
| 1778200312 | 7.78° C | 44% | 1020.7 hPa | - | - | - | - |
| 1778199411 | 6.67° C | 47% | 1020.5 hPa | - | - | - | - |
| 1778198510 | 7.78° C | 45% | 1020.6 hPa | - | - | - | - |
| 1778197609 | 7.22° C | 47% | 1020.7 hPa | - | - | - | - |
| 1778196709 | 7.22° C | 46% | 1020.7 hPa | - | - | - | - |
| 1778195808 | 10° C | 41% | 1020.6 hPa | - | - | - | - |
| 1778194907 | 7.22° C | 46% | 1020.6 hPa | - | - | - | - |
| 1778194006 | 7.78° C | 45% | 1020.5 hPa | - | - | - | - |
* Rain since midnight (hover to see other rain measurements)
** Current wind speed in m/s (hover to see current wind gust speed)